Time;durP1;ratioP1;P1;durP2;ratioP2;P2;SDS_P1;SDS_P2;PMS_P1;PMS_P2;Temp;Humidity;BMP_temperature;BMP_pressure;BME280_temperature;BME280_humidity;BME280_pressure;Samples;Min_cycle;Max_cycle;Signal;HPM_P1;HPM_P2
2022/03/25 00:00:44;;;;;;;61.22;39.97;;;4.50;99.90;;;;;;5115621;28;20059;-59
2022/03/25 00:03:10;;;;;;;63.65;42.47;;;4.50;99.90;;;;;;5116287;28;20035;-59
2022/03/25 00:05:36;;;;;;;66.18;43.10;;;4.50;99.90;;;;;;5115434;28;20463;-59
2022/03/25 00:08:02;;;;;;;66.85;43.00;;;4.40;99.90;;;;;;5115449;28;20067;-59
2022/03/25 00:10:28;;;;;;;68.03;45.53;;;4.40;99.90;;;;;;5116019;28;20097;-59
2022/03/25 00:12:54;;;;;;;67.30;43.20;;;4.30;99.90;;;;;;5115259;28;20035;-59
2022/03/25 00:15:20;;;;;;;80.22;49.33;;;4.30;99.90;;;;;;5097995;28;20043;-59
2022/03/25 00:17:46;;;;;;;69.65;43.70;;;4.30;99.90;;;;;;5114789;28;20031;-59
2022/03/25 00:20:11;;;;;;;60.78;38.22;;;4.20;99.90;;;;;;5115117;28;20035;-59
2022/03/25 00:22:37;;;;;;;55.42;37.75;;;4.30;99.90;;;;;;5116013;28;20483;-59
2022/03/25 00:25:05;;;;;;;62.28;40.80;;;4.20;99.90;;;;;;5115871;28;20495;-59
2022/03/25 00:27:32;;;;;;;66.47;43.08;;;4.20;99.90;;;;;;5113691;28;20369;-59
2022/03/25 00:29:57;;;;;;;61.78;37.97;;;4.10;99.90;;;;;;5114388;28;20051;-59
2022/03/25 00:32:23;;;;;;;60.50;37.75;;;4.10;99.90;;;;;;5115628;28;20031;-59
2022/03/25 00:34:49;;;;;;;56.42;38.10;;;4.10;99.90;;;;;;5113584;28;20043;-59
2022/03/25 00:37:14;;;;;;;58.10;37.83;;;4.10;99.90;;;;;;5114119;28;20460;-59
2022/03/25 00:39:40;;;;;;;60.15;38.85;;;4.10;99.90;;;;;;5114267;28;20036;-59
2022/03/25 00:42:06;;;;;;;62.72;38.88;;;;;;;;;;5114818;28;20446;-59
2022/03/25 00:44:31;;;;;;;63.10;38.38;;;4.00;99.90;;;;;;5116112;28;20053;-59
2022/03/25 00:46:58;;;;;;;55.05;37.22;;;4.00;99.90;;;;;;5115631;28;20429;-60
2022/03/25 00:49:24;;;;;;;53.00;35.95;;;4.00;99.90;;;;;;5113283;28;20097;-59
2022/03/25 00:51:50;;;;;;;56.10;36.38;;;4.00;99.90;;;;;;5113842;28;20044;-59
2022/03/25 00:54:16;;;;;;;53.25;33.15;;;4.00;99.90;;;;;;5115064;28;20130;-59
2022/03/25 00:56:42;;;;;;;53.70;35.28;;;3.90;99.90;;;;;;5114306;27;20044;-59
2022/03/25 00:59:08;;;;;;;54.33;35.75;;;3.90;99.90;;;;;;5115485;28;20093;-59
2022/03/25 01:01:33;;;;;;;63.53;40.17;;;3.90;99.90;;;;;;5115483;28;20044;-59
2022/03/25 01:03:59;;;;;;;62.55;41.03;;;3.90;99.90;;;;;;5113037;28;20043;-59
2022/03/25 01:06:24;;;;;;;56.20;36.88;;;3.80;99.90;;;;;;5114981;28;20046;-59
2022/03/25 01:08:51;;;;;;;51.47;34.08;;;3.80;99.90;;;;;;5114942;28;20044;-59
2022/03/25 01:11:16;;;;;;;56.38;36.20;;;3.80;99.90;;;;;;5112792;28;20081;-59
2022/03/25 01:13:42;;;;;;;51.85;33.92;;;3.70;99.90;;;;;;5113567;28;20075;-59
2022/03/25 01:16:08;;;;;;;59.13;37.80;;;3.70;99.90;;;;;;5114172;28;20047;-59
2022/03/25 01:18:34;;;;;;;57.78;37.35;;;3.70;99.90;;;;;;5113760;28;20610;-59
2022/03/25 01:21:00;;;;;;;50.50;34.13;;;3.70;99.90;;;;;;5113243;28;20122;-59
2022/03/25 01:23:25;;;;;;;56.67;34.78;;;3.60;99.90;;;;;;5113848;28;20169;-59
2022/03/25 01:25:51;;;;;;;53.58;32.30;;;3.60;99.90;;;;;;5113317;28;20044;-59
2022/03/25 01:28:17;;;;;;;53.03;32.50;;;3.60;99.90;;;;;;5113454;28;20051;-59
2022/03/25 01:30:43;;;;;;;46.70;30.67;;;3.60;99.90;;;;;;5113743;28;20433;-59
2022/03/25 01:33:09;;;;;;;47.45;30.55;;;3.60;99.90;;;;;;5114493;28;20036;-59
2022/03/25 01:35:36;;;;;;;55.03;33.20;;;3.50;99.90;;;;;;5113625;28;20110;-60
2022/03/25 01:38:02;;;;;;;49.58;31.63;;;3.50;99.90;;;;;;5113718;28;20044;-59
2022/03/25 01:40:28;;;;;;;54.95;33.83;;;3.50;99.90;;;;;;5112972;28;20047;-59
2022/03/25 01:42:53;;;;;;;55.05;33.83;;;3.50;99.90;;;;;;5113359;28;20476;-59
2022/03/25 01:45:39;;;;;;;53.88;35.00;;;3.50;99.90;;;;;;5113463;28;20035;-59
2022/03/25 01:48:13;;;;;;;49.28;31.80;;;3.40;99.90;;;;;;5114359;28;20044;-59
2022/03/25 01:50:40;;;;;;;46.45;31.55;;;3.40;99.90;;;;;;5114281;28;20050;-59
2022/03/25 01:53:26;;;;;;;49.35;34.30;;;3.30;99.90;;;;;;5112331;28;20039;-59
2022/03/25 01:55:53;;;;;;;;;;;3.30;99.90;;;;;;5114690;28;20047;-59
2022/03/25 01:58:19;;;;;;;44.97;29.17;;;3.20;99.90;;;;;;5112264;28;20026;-59
2022/03/25 02:00:45;;;;;;;46.20;30.42;;;3.20;99.90;;;;;;5095688;28;20049;-59
2022/03/25 02:03:11;;;;;;;42.63;28.30;;;3.20;99.90;;;;;;5113972;28;20119;-59
2022/03/25 02:05:37;;;;;;;45.45;29.45;;;3.20;99.90;;;;;;5113278;28;20488;-59
2022/03/25 02:08:03;;;;;;;46.50;30.50;;;3.40;99.90;;;;;;5113696;28;20036;-59
2022/03/25 02:10:29;;;;;;;50.90;31.10;;;3.20;99.90;;;;;;5113436;28;20121;-59
2022/03/25 02:12:55;;;;;;;45.30;29.73;;;3.30;99.90;;;;;;5112872;28;20078;-59
2022/03/25 02:15:42;;;;;;;47.75;27.73;;;3.10;99.90;;;;;;5113910;28;20028;-59
2022/03/25 02:18:12;;;;;;;47.83;29.35;;;;;;;;;;5113545;28;20081;-59
2022/03/25 02:20:39;;;;;;;39.97;24.80;;;3.10;99.90;;;;;;5113077;28;20054;-59
2022/03/25 02:23:06;;;;;;;42.17;26.05;;;3.30;99.90;;;;;;5113751;28;20092;-59
2022/03/25 02:25:32;;;;;;;42.55;25.25;;;;;;;;;;5113824;28;20444;-59
2022/03/25 02:27:59;;;;;;;41.25;24.05;;;;;;;;;;5112696;28;20393;-59
2022/03/25 02:30:29;;;;;;;34.30;23.05;;;2.80;99.90;;;;;;5113432;28;20044;-59
2022/03/25 02:33:00;;;;;;;35.08;22.35;;;3.30;99.90;;;;;;5113289;28;20480;-59
2022/03/25 02:35:49;;;;;;;38.10;23.17;;;3.10;99.90;;;;;;5111179;28;20074;-59
2022/03/25 02:38:17;;;;;;;30.92;21.42;;;2.90;99.90;;;;;;5095077;28;20046;-59
2022/03/25 02:40:43;;;;;;;30.90;19.30;;;3.40;99.90;;;;;;5112350;28;20151;-59
2022/03/25 02:43:11;;;;;;;33.03;20.10;;;3.00;99.90;;;;;;5095060;28;20078;-59
2022/03/25 02:45:37;;;;;;;27.00;18.70;;;2.80;99.90;;;;;;5113620;28;20392;-59
2022/03/25 02:48:04;;;;;;;27.25;17.48;;;2.90;99.90;;;;;;5093800;28;20050;-59
2022/03/25 02:50:30;;;;;;;26.30;17.38;;;2.80;99.90;;;;;;5112101;28;20472;-59
2022/03/25 02:52:59;;;;;;;26.52;17.95;;;2.90;99.90;;;;;;5111760;28;20148;-59
2022/03/25 02:55:25;;;;;;;25.70;17.95;;;2.90;99.90;;;;;;5111867;28;20085;-59
2022/03/25 02:57:52;;;;;;;23.40;16.05;;;2.60;99.90;;;;;;5113139;28;20086;-59
2022/03/25 03:00:19;;;;;;;27.95;16.52;;;2.80;99.90;;;;;;5112918;28;20464;-58
2022/03/25 03:02:46;;;;;;;22.70;15.55;;;2.90;99.90;;;;;;5112045;28;20077;-59
2022/03/25 03:05:11;;;;;;;24.45;16.08;;;2.80;99.90;;;;;;5111804;28;20039;-59
2022/03/25 03:07:37;;;;;;;25.73;16.10;;;2.70;99.90;;;;;;5112990;28;20046;-59
2022/03/25 03:10:05;;;;;;;22.67;15.70;;;2.70;99.90;;;;;;5110577;28;20114;-59
2022/03/25 03:12:32;;;;;;;23.08;15.98;;;2.70;99.90;;;;;;5112834;28;20036;-59
2022/03/25 03:14:59;;;;;;;27.73;16.70;;;2.90;99.90;;;;;;5112820;28;20044;-59
2022/03/25 03:17:25;;;;;;;27.38;15.60;;;2.70;99.90;;;;;;5110643;28;20051;-59
2022/03/25 03:19:50;;;;;;;24.23;16.63;;;2.80;99.90;;;;;;5112516;28;20039;-59
2022/03/25 03:22:17;;;;;;;27.40;16.45;;;2.70;99.90;;;;;;5111902;28;20396;-59
2022/03/25 03:24:43;;;;;;;23.50;15.35;;;2.40;99.90;;;;;;5111786;28;20085;-59
2022/03/25 03:27:10;;;;;;;29.13;15.60;;;2.70;99.90;;;;;;5111588;28;20556;-59
2022/03/25 03:29:36;;;;;;;23.73;16.60;;;2.80;99.90;;;;;;5111464;28;20044;-59
2022/03/25 03:32:02;;;;;;;27.02;17.52;;;3.10;99.90;;;;;;5112160;28;20377;-59
2022/03/25 03:34:28;;;;;;;27.42;17.38;;;2.50;99.90;;;;;;5112657;28;20044;-59
2022/03/25 03:36:54;;;;;;;31.17;18.42;;;2.80;99.90;;;;;;5111657;28;20135;-59
2022/03/25 03:39:19;;;;;;;27.55;16.33;;;2.70;99.90;;;;;;5111111;28;20044;-59
2022/03/25 03:41:45;;;;;;;29.58;19.52;;;2.50;99.90;;;;;;5111115;28;20070;-59
2022/03/25 03:44:10;;;;;;;25.20;16.15;;;2.60;99.90;;;;;;5111632;28;20384;-59
2022/03/25 03:46:36;;;;;;;22.77;15.35;;;2.60;99.90;;;;;;5112598;28;20078;-59
2022/03/25 03:49:02;;;;;;;26.42;16.77;;;2.70;99.90;;;;;;5112434;28;20046;-59
2022/03/25 03:51:28;;;;;;;33.28;19.65;;;2.50;99.90;;;;;;5110575;28;20039;-59
2022/03/25 03:53:54;;;;;;;30.67;19.75;;;2.60;99.90;;;;;;5112204;28;20067;-59
2022/03/25 03:56:22;;;;;;;26.40;16.67;;;2.60;99.90;;;;;;5112520;28;20085;-59
2022/03/25 03:58:48;;;;;;;31.88;19.48;;;2.30;99.90;;;;;;5110205;28;20055;-59
2022/03/25 04:01:13;;;;;;;24.70;17.13;;;2.60;99.90;;;;;;5110748;28;20052;-59
2022/03/25 04:03:39;;;;;;;26.55;17.80;;;2.60;99.90;;;;;;5111516;28;20096;-59
2022/03/25 04:06:05;;;;;;;26.25;15.88;;;2.60;99.90;;;;;;5111524;28;20036;-59
2022/03/25 04:08:31;;;;;;;26.95;17.88;;;2.50;99.90;;;;;;5112015;28;20035;-59
2022/03/25 04:10:58;;;;;;;24.33;17.00;;;2.50;99.90;;;;;;5112275;28;20055;-59
2022/03/25 04:13:24;;;;;;;27.75;17.75;;;2.60;99.90;;;;;;5111248;28;20079;-59
2022/03/25 04:15:50;;;;;;;28.48;20.17;;;2.60;99.90;;;;;;5110970;28;20438;-59
2022/03/25 04:18:16;;;;;;;31.67;19.42;;;2.50;99.90;;;;;;5110862;28;20047;-59
2022/03/25 04:20:42;;;;;;;29.55;19.48;;;2.40;99.90;;;;;;5109834;28;20065;-59
2022/03/25 04:23:08;;;;;;;32.33;21.30;;;2.60;99.90;;;;;;5111950;28;20067;-59
2022/03/25 04:25:34;;;;;;;37.95;23.50;;;2.50;99.90;;;;;;5111108;28;20611;-59
2022/03/25 04:28:00;;;;;;;32.78;20.38;;;2.20;99.90;;;;;;5109861;28;20043;-59
2022/03/25 04:30:30;;;;;;;32.22;19.67;;;2.30;99.90;;;;;;5111991;28;20118;-59
2022/03/25 04:32:57;;;;;;;31.00;20.00;;;2.40;99.90;;;;;;5113513;28;20111;-59
2022/03/25 04:35:24;;;;;;;42.58;25.10;;;2.70;99.90;;;;;;5115510;28;20043;-59
2022/03/25 04:37:51;;;;;;;37.35;23.48;;;2.50;99.90;;;;;;5114339;28;20044;-59
2022/03/25 04:40:19;;;;;;;34.28;22.83;;;2.70;99.90;;;;;;5114862;28;20479;-59
2022/03/25 04:42:50;;;;;;;33.28;21.60;;;2.50;99.90;;;;;;5114240;28;20054;-59
2022/03/25 04:45:16;;;;;;;34.95;23.60;;;2.20;99.90;;;;;;5115381;28;20096;-59
2022/03/25 04:47:42;;;;;;;33.30;19.88;;;2.30;99.90;;;;;;5096641;28;20053;-59
2022/03/25 04:50:09;;;;;;;34.03;19.98;;;2.70;99.90;;;;;;5115537;28;20031;-59
2022/03/25 04:52:35;;;;;;;34.63;21.58;;;2.40;99.90;;;;;;5114393;28;20503;-59
2022/03/25 04:55:01;;;;;;;38.25;23.83;;;2.50;99.90;;;;;;5113175;28;20048;-59
2022/03/25 04:57:26;;;;;;;31.30;20.65;;;2.10;99.90;;;;;;5113810;28;20062;-59
2022/03/25 04:59:53;;;;;;;36.08;22.77;;;;;;;;;;5115207;28;20078;-59
2022/03/25 05:02:18;;;;;;;32.35;19.45;;;2.10;99.90;;;;;;5113153;28;20044;-59
2022/03/25 05:04:44;;;;;;;29.63;18.73;;;2.00;99.90;;;;;;5096697;28;20066;-59
2022/03/25 05:07:14;;;;;;;32.67;20.27;;;2.00;99.90;;;;;;5114971;27;20040;-59
2022/03/25 05:09:40;;;;;;;33.55;19.83;;;2.00;99.90;;;;;;5113304;28;20240;-59
2022/03/25 05:12:06;;;;;;;31.88;20.35;;;2.00;99.90;;;;;;5114043;28;20476;-59
2022/03/25 05:14:34;;;;;;;32.63;21.90;;;2.00;99.90;;;;;;5097068;28;20075;-59
2022/03/25 05:17:00;;;;;;;32.30;19.73;;;2.00;99.90;;;;;;5114061;28;20150;-59
2022/03/25 05:19:25;;;;;;;34.00;21.23;;;2.00;99.90;;;;;;5115053;28;20046;-59
2022/03/25 05:21:51;;;;;;;39.55;23.85;;;2.00;99.90;;;;;;5114899;28;20043;-59
2022/03/25 05:24:17;;;;;;;37.22;22.83;;;1.90;99.90;;;;;;5113956;28;20040;-59
2022/03/25 05:26:44;;;;;;;38.88;24.60;;;2.00;99.90;;;;;;5114693;28;20071;-59
2022/03/25 05:29:10;;;;;;;32.03;20.83;;;2.00;99.90;;;;;;5114527;28;20031;-59
2022/03/25 05:31:36;;;;;;;34.38;21.00;;;2.00;99.90;;;;;;5114386;28;20027;-59
2022/03/25 05:34:06;;;;;;;32.97;22.00;;;1.90;99.90;;;;;;5114805;28;20046;-59
2022/03/25 05:36:33;;;;;;;33.58;20.65;;;2.00;99.90;;;;;;5114377;28;20094;-59
2022/03/25 05:39:00;;;;;;;34.13;21.02;;;2.00;99.90;;;;;;5114558;28;20064;-59
2022/03/25 05:41:27;;;;;;;39.05;23.75;;;1.90;99.90;;;;;;5113133;28;20043;-59
2022/03/25 05:43:53;;;;;;;38.30;21.80;;;2.00;99.90;;;;;;5112761;28;20075;-59
2022/03/25 05:46:19;;;;;;;31.33;19.95;;;2.00;99.90;;;;;;5114251;28;20040;-59
2022/03/25 05:48:45;;;;;;;31.42;19.25;;;1.90;99.90;;;;;;5114538;28;20384;-59
2022/03/25 05:51:10;;;;;;;36.38;21.50;;;1.90;99.90;;;;;;5113450;28;20123;-59
2022/03/25 05:53:37;;;;;;;38.88;23.20;;;2.00;99.90;;;;;;5114257;28;20066;-59
2022/03/25 05:56:05;;;;;;;36.35;21.13;;;2.00;99.90;;;;;;5112803;28;20496;-59
2022/03/25 05:58:35;;;;;;;36.45;22.73;;;2.00;99.90;;;;;;5113269;28;20043;-59
2022/03/25 06:01:05;;;;;;;36.30;22.60;;;2.00;99.90;;;;;;5112672;28;20048;-59
2022/03/25 06:03:32;;;;;;;41.42;24.98;;;2.10;99.90;;;;;;5112873;28;20039;-59
2022/03/25 06:05:59;;;;;;;35.97;23.23;;;2.10;99.90;;;;;;5113316;28;20032;-59
2022/03/25 06:08:25;;;;;;;37.53;22.35;;;2.20;99.90;;;;;;5112630;28;20042;-59
2022/03/25 06:10:51;;;;;;;36.88;21.45;;;2.30;99.90;;;;;;5113589;28;20031;-59
2022/03/25 06:13:17;;;;;;;35.35;21.80;;;2.20;99.90;;;;;;5112954;28;20115;-59
2022/03/25 06:15:44;;;;;;;34.17;21.48;;;2.30;99.90;;;;;;5113672;28;20118;-59
2022/03/25 06:18:12;;;;;;;41.40;25.77;;;2.40;99.90;;;;;;5113603;28;20044;-59
2022/03/25 06:20:38;;;;;;;36.53;23.58;;;;;;;;;;5113157;28;20122;-59
2022/03/25 06:23:05;;;;;;;36.95;23.55;;;;;;;;;;5113766;28;20484;-59
2022/03/25 06:25:31;;;;;;;37.95;23.80;;;;;;;;;;5111295;28;20510;-59
2022/03/25 06:27:58;;;;;;;40.47;25.17;;;;;;;;;;5113508;28;20386;-59
2022/03/25 06:30:27;;;;;;;40.97;25.23;;;2.80;99.90;;;;;;5113610;28;20076;-59
2022/03/25 06:32:54;;;;;;;42.38;25.50;;;2.80;99.90;;;;;;5112754;28;20106;-59
2022/03/25 06:35:20;;;;;;;37.10;23.80;;;2.90;99.90;;;;;;5113453;27;20035;-59
2022/03/25 06:37:46;;;;;;;42.10;25.17;;;2.90;99.90;;;;;;5112124;28;20134;-59
2022/03/25 06:40:13;;;;;;;49.70;28.80;;;3.00;99.90;;;;;;5112007;28;20114;-59
2022/03/25 06:42:40;;;;;;;48.90;30.85;;;3.10;99.90;;;;;;5113703;28;20031;-59
2022/03/25 06:45:08;;;;;;;40.30;25.88;;;3.10;99.90;;;;;;5112212;28;20042;-59
2022/03/25 06:47:34;;;;;;;47.83;29.65;;;3.20;99.90;;;;;;5112508;28;20063;-59
2022/03/25 06:50:01;;;;;;;48.63;28.70;;;3.30;99.90;;;;;;5113130;28;20177;-59
2022/03/25 06:52:27;;;;;;;50.75;29.73;;;3.40;99.90;;;;;;5109121;28;20039;-59
2022/03/25 06:54:53;;;;;;;51.80;34.50;;;3.50;99.90;;;;;;5088507;28;20389;-59
2022/03/25 06:57:19;;;;;;;56.95;33.65;;;3.60;99.90;;;;;;5087424;28;20036;-59
2022/03/25 06:59:46;;;;;;;49.55;30.88;;;3.80;99.90;;;;;;5071765;28;20044;-60
2022/03/25 07:02:13;;;;;;;53.80;32.47;;;3.90;99.90;;;;;;5089060;28;20117;-59
2022/03/25 07:04:39;;;;;;;50.42;31.67;;;4.00;99.90;;;;;;5100647;28;20102;-59
2022/03/25 07:07:06;;;;;;;56.22;33.33;;;4.10;99.90;;;;;;5072380;28;20483;-59
2022/03/25 07:09:32;;;;;;;56.85;33.97;;;4.30;99.90;;;;;;5086592;28;20089;-59
2022/03/25 07:11:59;;;;;;;55.50;32.63;;;4.40;99.90;;;;;;5093766;28;20364;-59
2022/03/25 07:14:26;;;;;;;52.60;31.73;;;4.60;99.90;;;;;;5109529;28;20048;-59
2022/03/25 07:16:52;;;;;;;54.05;33.40;;;4.90;99.90;;;;;;5108270;28;20100;-59
2022/03/25 07:19:17;;;;;;;49.75;32.40;;;5.10;99.90;;;;;;5103993;28;20051;-59
2022/03/25 07:21:44;;;;;;;48.92;31.35;;;5.30;99.90;;;;;;5108163;28;20047;-59
2022/03/25 07:24:11;;;;;;;48.80;30.38;;;5.40;99.90;;;;;;5094978;28;20040;-59
2022/03/25 07:26:37;;;;;;;49.13;31.02;;;5.70;99.90;;;;;;5104559;28;20122;-59
2022/03/25 07:29:03;;;;;;;47.50;30.13;;;5.90;99.90;;;;;;5088918;28;20268;-59
2022/03/25 07:31:29;;;;;;;46.40;27.05;;;6.20;99.90;;;;;;5089901;28;20103;-59
2022/03/25 07:33:59;;;;;;;48.47;31.30;;;6.10;99.90;;;;;;5093313;28;20122;-59
2022/03/25 07:36:25;;;;;;;49.05;27.60;;;6.10;99.90;;;;;;5091183;28;20675;-59
2022/03/25 07:38:51;;;;;;;41.20;26.88;;;6.40;99.90;;;;;;5110095;28;20045;-59
2022/03/25 07:41:17;;;;;;;48.08;29.20;;;6.60;99.90;;;;;;5106872;28;20044;-59
2022/03/25 07:43:43;;;;;;;40.28;27.98;;;;;;;;;;5106117;28;20093;-59
2022/03/25 07:46:12;;;;;;;38.88;26.20;;;;;;;;;;5108186;28;20086;-59
2022/03/25 07:48:38;;;;;;;44.13;27.77;;;;;;;;;;5089955;28;20075;-60
2022/03/25 07:51:04;;;;;;;44.00;26.52;;;7.10;99.90;;;;;;5106654;28;20407;-59
2022/03/25 07:53:32;;;;;;;40.08;24.70;;;;;;;;;;5108444;28;20148;-59
2022/03/25 07:55:59;;;;;;;34.85;22.65;;;7.50;99.90;;;;;;5108387;28;20112;-60
2022/03/25 07:58:25;;;;;;;35.83;21.65;;;7.60;99.90;;;;;;5088961;28;20132;-59
2022/03/25 08:00:51;;;;;;;35.25;23.17;;;7.70;99.90;;;;;;5071683;28;20119;-59
2022/03/25 08:03:18;;;;;;;38.90;23.25;;;7.80;99.90;;;;;;5090342;28;20469;-59
2022/03/25 08:05:44;;;;;;;33.78;22.80;;;9.50;99.90;;;;;;5101411;28;20124;-60
2022/03/25 08:08:10;;;;;;;33.83;21.48;;;;;;;;;;5089481;28;20097;-59
2022/03/25 08:10:38;;;;;;;34.72;21.60;;;8.20;99.90;;;;;;5111785;28;20040;-60
2022/03/25 08:13:05;;;;;;;35.58;22.88;;;8.30;99.90;;;;;;5095439;28;20148;-59
2022/03/25 08:15:32;;;;;;;33.15;22.02;;;;;;;;;;5104536;28;20047;-59
2022/03/25 08:18:06;;;;;;;35.60;22.25;;;8.40;99.90;;;;;;5107049;28;20573;-59
2022/03/25 08:20:36;;;;;;;36.72;20.98;;;;;;;;;;5107671;28;20080;-59
2022/03/25 08:23:03;;;;;;;34.80;22.33;;;;;;;;;;5096567;28;20047;-59
2022/03/25 08:28:14;;;;;;;35.20;21.73;;;;;;;;;;5096168;28;20043;-60
2022/03/25 08:30:41;;;;;;;34.08;22.42;;;;;;;;;;5100148;28;20036;-60
2022/03/25 08:33:07;;;;;;;36.15;22.80;;;;;;;;;;5110728;28;20051;-60
2022/03/25 08:35:33;;;;;;;36.20;21.58;;;9.10;99.90;;;;;;5107876;28;20085;-59
2022/03/25 08:38:00;;;;;;;34.60;23.88;;;;;;;;;;5091706;28;20052;-60
2022/03/25 08:40:28;;;;;;;31.63;20.90;;;9.10;99.90;;;;;;5090785;28;20079;-59
2022/03/25 08:42:53;;;;;;;41.88;24.83;;;9.30;99.90;;;;;;5091433;28;20052;-60
2022/03/25 08:45:20;;;;;;;34.00;20.05;;;9.30;99.90;;;;;;5091525;28;20055;-59
2022/03/25 08:47:48;;;;;;;32.97;20.98;;;9.30;99.90;;;;;;5097732;28;20067;-59
2022/03/25 08:50:16;;;;;;;35.40;22.58;;;9.50;99.90;;;;;;5113078;27;20043;-59
2022/03/25 08:52:43;;;;;;;30.85;18.05;;;;;;;;;;5111664;28;20040;-60
2022/03/25 08:55:09;;;;;;;30.83;19.08;;;9.60;99.90;;;;;;5112136;28;20199;-60
2022/03/25 08:57:36;;;;;;;31.98;18.52;;;9.70;99.90;;;;;;5105055;28;20039;-59
2022/03/25 09:00:10;;;;;;;32.35;19.92;;;9.80;99.90;;;;;;5104061;28;20044;-60
2022/03/25 09:02:38;;;;;;;31.27;20.10;;;;;;;;;;5091349;28;20044;-60
2022/03/25 09:05:05;;;;;;;31.27;18.45;;;;;;;;;;5106513;28;20114;-59
2022/03/25 09:07:31;;;;;;;34.17;21.15;;;;;;;;;;5091774;28;20031;-60
2022/03/25 09:09:57;;;;;;;31.33;20.52;;;10.00;99.90;;;;;;5094399;28;20035;-60
2022/03/25 09:12:23;;;;;;;34.17;21.20;;;10.10;99.90;;;;;;5103257;28;20046;-59
2022/03/25 09:14:49;;;;;;;30.00;18.65;;;10.20;99.90;;;;;;5097087;28;20043;-59
2022/03/25 09:17:15;;;;;;;33.97;19.48;;;10.20;99.90;;;;;;5100340;28;20059;-59
2022/03/25 09:19:42;;;;;;;28.45;18.02;;;10.30;99.90;;;;;;5076249;28;20126;-59
2022/03/25 09:22:08;;;;;;;30.70;17.83;;;10.40;99.90;;;;;;5102524;28;20477;-59
2022/03/25 09:24:33;;;;;;;26.73;17.98;;;10.50;99.90;;;;;;5099177;28;20051;-59
2022/03/25 09:26:59;;;;;;;27.52;18.20;;;10.50;99.90;;;;;;5108699;28;20585;-59
2022/03/25 09:29:25;;;;;;;32.92;19.92;;;10.60;99.90;;;;;;5105342;28;20044;-59
2022/03/25 09:31:51;;;;;;;29.90;18.48;;;10.70;99.90;;;;;;5104640;28;20522;-59
2022/03/25 09:37:01;;;;;;;25.45;17.02;;;10.70;99.90;;;;;;5092344;28;20048;-59
2022/03/25 09:39:27;;;;;;;29.30;18.58;;;10.90;99.90;;;;;;5092764;28;20047;-59
2022/03/25 09:41:53;;;;;;;23.90;16.40;;;10.90;99.90;;;;;;5090988;28;20047;-60
2022/03/25 09:44:19;;;;;;;25.02;15.18;;;11.20;99.90;;;;;;5074486;28;20047;-59
2022/03/25 09:46:45;;;;;;;23.35;15.18;;;11.20;99.90;;;;;;5102404;28;20036;-60
2022/03/25 09:49:11;;;;;;;24.98;14.40;;;11.40;99.90;;;;;;5092590;28;20032;-59
2022/03/25 09:51:37;;;;;;;24.92;14.95;;;11.40;99.90;;;;;;5094825;28;20081;-59
2022/03/25 09:54:06;;;;;;;23.63;13.80;;;11.50;99.90;;;;;;5106397;28;20060;-59
2022/03/25 09:56:35;;;;;;;24.05;14.07;;;11.60;99.90;;;;;;5111910;28;20083;-59
2022/03/25 09:59:02;;;;;;;26.02;14.75;;;11.70;99.90;;;;;;5112597;28;20488;-59
2022/03/25 10:01:27;;;;;;;21.65;14.00;;;11.70;99.90;;;;;;5107891;28;20043;-59
2022/03/25 10:03:53;;;;;;;24.20;14.60;;;11.80;99.90;;;;;;5102553;28;20546;-59
2022/03/25 10:06:19;;;;;;;25.63;14.75;;;11.60;98.90;;;;;;5112381;28;20506;-59
2022/03/25 10:08:58;;;;;;;24.98;14.52;;;11.60;98.80;;;;;;5113144;28;20043;-59
2022/03/25 10:11:30;;;;;;;24.58;14.23;;;11.80;98.60;;;;;;5111077;28;20081;-59
2022/03/25 10:14:14;;;;;;;21.95;13.52;;;11.80;98.60;;;;;;5096154;28;20055;-61
2022/03/25 10:16:41;;;;;;;21.10;13.32;;;12.10;99.90;;;;;;5093894;28;20508;-62
2022/03/25 10:19:09;;;;;;;25.60;15.35;;;12.20;99.90;;;;;;5095434;28;20047;-61
2022/03/25 10:21:51;;;;;;;24.60;13.63;;;12.20;99.90;;;;;;5077001;28;20167;-62
2022/03/25 10:24:20;;;;;;;23.00;13.15;;;12.10;99.90;;;;;;5099441;28;20043;-63
2022/03/25 10:26:46;;;;;;;21.67;13.02;;;12.70;99.90;;;;;;5098259;28;20489;-62
2022/03/25 10:29:22;;;;;;;22.13;12.65;;;12.20;99.90;;;;;;5099648;28;20127;-62
2022/03/25 10:32:11;;;;;;;27.67;12.77;;;12.10;99.90;;;;;;5089016;28;20100;-61
2022/03/25 10:34:38;;;;;;;20.60;13.15;;;;;;;;;;5112025;28;20487;-61
2022/03/25 10:37:05;;;;;;;24.70;13.25;;;;;;;;;;5107030;28;20064;-61
2022/03/25 10:39:32;;;;;;;23.13;13.02;;;;;;;;;;5103304;28;20449;-61
2022/03/25 10:41:59;;;;;;;23.33;14.50;;;12.20;93.00;;;;;;5104565;28;20044;-61
2022/03/25 10:44:34;;;;;;;24.27;14.38;;;;;;;;;;5091528;28;20491;-61
2022/03/25 10:47:00;;;;;;;24.17;13.65;;;;;;;;;;5103623;28;20088;-61
2022/03/25 10:49:37;;;;;;;23.83;13.00;;;;;;;;;;5099545;28;20115;-61
2022/03/25 10:52:04;;;;;;;25.55;15.27;;;12.60;99.90;;;;;;5090135;28;20043;-61
2022/03/25 10:54:30;;;;;;;22.08;13.98;;;12.70;99.90;;;;;;5088119;28;20082;-61
2022/03/25 10:56:58;;;;;;;22.00;12.40;;;12.70;99.90;;;;;;5099076;28;20055;-61
2022/03/25 10:59:35;;;;;;;23.77;13.88;;;13.10;99.50;;;;;;5105897;28;20526;-60
2022/03/25 11:02:04;;;;;;;25.90;13.13;;;12.90;93.00;;;;;;5091500;28;20043;-61
2022/03/25 11:04:30;;;;;;;19.13;11.13;;;12.80;93.00;;;;;;5099305;28;20495;-61
2022/03/25 11:07:01;;;;;;;21.77;13.52;;;13.50;94.50;;;;;;5093367;28;20039;-61
2022/03/25 11:09:27;;;;;;;21.70;12.93;;;13.10;91.60;;;;;;5092168;28;20043;-61
2022/03/25 11:11:53;;;;;;;22.15;13.27;;;13.70;93.30;;;;;;5091460;28;20388;-61
2022/03/25 11:14:20;;;;;;;22.90;14.07;;;;;;;;;;5091975;28;20127;-61
2022/03/25 11:16:47;;;;;;;23.73;15.27;;;13.30;99.90;;;;;;5097531;28;20044;-61
2022/03/25 11:19:14;;;;;;;24.13;15.52;;;;;;;;;;5111708;28;20043;-61
2022/03/25 11:21:45;;;;;;;23.70;13.85;;;13.10;79.40;;;;;;5111663;28;20040;-61
2022/03/25 11:24:24;;;;;;;19.85;14.60;;;13.20;80.40;;;;;;5107768;28;20036;-61
2022/03/25 11:26:53;;;;;;;23.70;13.93;;;13.30;80.90;;;;;;5091704;28;20446;-61
2022/03/25 11:29:23;;;;;;;23.80;15.50;;;13.30;81.50;;;;;;5092337;28;20065;-61
2022/03/25 11:32:11;;;;;;;23.63;13.90;;;13.30;81.60;;;;;;5099169;28;20052;-62
2022/03/25 11:34:55;;;;;;;24.88;15.55;;;13.30;81.10;;;;;;5108797;28;20063;-62
2022/03/25 11:37:28;;;;;;;24.80;15.50;;;13.30;80.30;;;;;;5109188;28;20047;-63
2022/03/25 11:40:13;;;;;;;25.65;16.60;;;13.30;80.60;;;;;;5109099;28;20419;-62
2022/03/25 11:42:41;;;;;;;24.53;14.90;;;13.50;79.50;;;;;;5111972;28;20357;-62
2022/03/25 11:45:22;;;;;;;26.88;17.98;;;13.30;80.70;;;;;;5101453;28;20040;-63
2022/03/25 11:48:00;;;;;;;28.05;16.50;;;13.30;80.00;;;;;;5100870;28;20051;-62
2022/03/25 11:50:35;;;;;;;28.13;16.60;;;13.50;80.10;;;;;;5094359;28;20043;-63
2022/03/25 11:53:12;;;;;;;27.13;17.40;;;13.30;79.60;;;;;;5094438;28;20404;-62
2022/03/25 11:56:07;;;;;;;28.67;18.02;;;13.40;79.50;;;;;;5112595;28;20056;-63
2022/03/25 11:59:00;;;;;;;31.55;19.98;;;13.40;77.20;;;;;;5112617;28;20387;-62
2022/03/25 12:01:26;;;;;;;33.10;18.27;;;13.40;79.50;;;;;;5106359;28;20043;-62
2022/03/25 12:03:57;;;;;;;35.80;22.20;;;13.40;78.80;;;;;;5106902;28;20032;-63
2022/03/25 12:06:50;;;;;;;35.70;22.08;;;13.40;78.10;;;;;;5103854;28;20428;-62
2022/03/25 12:09:18;;;;;;;34.03;21.30;;;13.50;79.90;;;;;;5094883;28;20389;-63
2022/03/25 12:11:52;;;;;;;34.72;22.52;;;13.50;78.80;;;;;;5114384;27;20047;-62
2022/03/25 12:14:30;;;;;;;35.83;23.52;;;13.50;80.40;;;;;;5106601;28;20493;-63
2022/03/25 12:16:58;;;;;;;37.17;24.77;;;13.60;81.00;;;;;;5091908;28;20048;-63
2022/03/25 12:19:26;;;;;;;37.10;24.75;;;13.80;82.80;;;;;;5090684;28;20115;-63
2022/03/25 12:21:53;;;;;;;38.50;25.48;;;13.70;85.70;;;;;;5091515;28;20040;-63
2022/03/25 12:24:20;;;;;;;36.83;24.17;;;13.60;85.30;;;;;;5100709;28;20050;-63
2022/03/25 12:27:02;;;;;;;37.75;24.42;;;13.60;84.40;;;;;;5093993;28;20032;-61
2022/03/25 12:29:39;;;;;;;37.25;24.15;;;13.70;83.60;;;;;;5092345;28;20114;-63
2022/03/25 12:32:09;;;;;;;39.13;24.40;;;13.70;83.60;;;;;;5108956;28;20606;-62
2022/03/25 12:34:40;;;;;;;38.40;24.35;;;13.70;82.90;;;;;;5106780;28;20040;-63
2022/03/25 12:37:10;;;;;;;38.70;24.73;;;13.80;82.70;;;;;;5097905;28;20043;-62
2022/03/25 12:39:36;;;;;;;38.05;25.55;;;13.80;83.30;;;;;;5110596;28;20043;-62
2022/03/25 12:42:11;;;;;;;33.92;21.38;;;13.90;83.50;;;;;;5113449;28;20067;-63
2022/03/25 12:44:36;;;;;;;;;;;14.10;83.30;;;;;;5115105;28;20080;-62
2022/03/25 12:47:03;;;;;;;33.72;23.30;;;14.10;80.40;;;;;;5113377;28;20006;-62
2022/03/25 12:49:30;;;;;;;39.25;23.85;;;14.20;80.70;;;;;;5111867;28;20028;-62
2022/03/25 12:51:57;;;;;;;32.85;21.08;;;14.50;77.90;;;;;;5103432;28;20040;-62
2022/03/25 12:54:23;;;;;;;34.13;22.23;;;14.30;75.90;;;;;;5092770;28;20516;-62